sensor_id;sensor_type;location;lat;lon;timestamp;P1;durP1;ratioP1;P2;durP2;ratioP2
49396;SDS011;35615;41.410;2.194;2023-04-12T00:01:07;14.35;;;6.30;;
49396;SDS011;35615;41.410;2.194;2023-04-12T00:03:36;11.95;;;7.05;;
49396;SDS011;35615;41.410;2.194;2023-04-12T00:06:05;12.73;;;6.80;;
49396;SDS011;35615;41.410;2.194;2023-04-12T00:08:33;13.93;;;6.80;;
49396;SDS011;35615;41.410;2.194;2023-04-12T00:11:01;11.20;;;7.25;;
49396;SDS011;35615;41.410;2.194;2023-04-12T00:13:29;13.73;;;6.78;;
49396;SDS011;35615;41.410;2.194;2023-04-12T00:15:56;15.85;;;7.85;;
49396;SDS011;35615;41.410;2.194;2023-04-12T00:18:25;14.70;;;6.75;;
49396;SDS011;35615;41.410;2.194;2023-04-12T00:20:56;24.13;;;7.40;;
49396;SDS011;35615;41.410;2.194;2023-04-12T00:23:23;11.93;;;7.38;;
49396;SDS011;35615;41.410;2.194;2023-04-12T00:25:50;14.23;;;6.75;;
49396;SDS011;35615;41.410;2.194;2023-04-12T00:28:18;18.60;;;6.22;;
49396;SDS011;35615;41.410;2.194;2023-04-12T00:30:45;12.95;;;6.38;;
49396;SDS011;35615;41.410;2.194;2023-04-12T00:33:13;13.07;;;5.93;;
49396;SDS011;35615;41.410;2.194;2023-04-12T00:35:40;10.68;;;6.35;;
49396;SDS011;35615;41.410;2.194;2023-04-12T00:38:13;13.85;;;5.88;;
49396;SDS011;35615;41.410;2.194;2023-04-12T00:40:41;14.68;;;6.90;;
49396;SDS011;35615;41.410;2.194;2023-04-12T00:43:12;14.10;;;6.32;;
49396;SDS011;35615;41.410;2.194;2023-04-12T00:45:47;10.50;;;6.28;;
49396;SDS011;35615;41.410;2.194;2023-04-12T00:48:15;11.43;;;5.75;;
49396;SDS011;35615;41.410;2.194;2023-04-12T00:50:43;11.27;;;5.93;;
49396;SDS011;35615;41.410;2.194;2023-04-12T00:53:13;9.15;;;5.45;;
49396;SDS011;35615;41.410;2.194;2023-04-12T00:55:46;14.27;;;5.33;;
49396;SDS011;35615;41.410;2.194;2023-04-12T00:58:15;13.05;;;5.30;;
49396;SDS011;35615;41.410;2.194;2023-04-12T01:00:43;13.95;;;5.88;;
49396;SDS011;35615;41.410;2.194;2023-04-12T01:03:19;11.68;;;5.93;;
49396;SDS011;35615;41.410;2.194;2023-04-12T01:14:20;7.82;;;4.53;;
49396;SDS011;35615;41.410;2.194;2023-04-12T01:16:59;10.00;;;5.30;;
49396;SDS011;35615;41.410;2.194;2023-04-12T01:22:20;15.55;;;4.60;;
49396;SDS011;35615;41.410;2.194;2023-04-12T01:25:02;12.45;;;5.15;;
49396;SDS011;35615;41.410;2.194;2023-04-12T01:27:47;9.70;;;6.10;;
49396;SDS011;35615;41.410;2.194;2023-04-12T01:30:30;7.70;;;5.28;;
49396;SDS011;35615;41.410;2.194;2023-04-12T01:33:02;9.45;;;4.40;;
49396;SDS011;35615;41.410;2.194;2023-04-12T01:35:32;9.98;;;4.90;;
49396;SDS011;35615;41.410;2.194;2023-04-12T01:38:01;11.18;;;4.75;;
49396;SDS011;35615;41.410;2.194;2023-04-12T01:40:30;7.18;;;4.85;;
49396;SDS011;35615;41.410;2.194;2023-04-12T01:43:04;12.38;;;5.10;;
49396;SDS011;35615;41.410;2.194;2023-04-12T01:45:32;8.13;;;5.22;;
49396;SDS011;35615;41.410;2.194;2023-04-12T01:48:04;12.98;;;5.18;;
49396;SDS011;35615;41.410;2.194;2023-04-12T01:53:11;11.95;;;4.72;;
49396;SDS011;35615;41.410;2.194;2023-04-12T01:55:48;14.48;;;4.97;;
49396;SDS011;35615;41.410;2.194;2023-04-12T01:58:24;7.03;;;4.88;;
49396;SDS011;35615;41.410;2.194;2023-04-12T02:00:52;10.10;;;4.82;;
49396;SDS011;35615;41.410;2.194;2023-04-12T02:03:22;7.38;;;4.45;;
49396;SDS011;35615;41.410;2.194;2023-04-12T02:05:54;8.60;;;5.13;;
49396;SDS011;35615;41.410;2.194;2023-04-12T02:08:24;7.72;;;4.82;;
49396;SDS011;35615;41.410;2.194;2023-04-12T02:10:51;12.75;;;5.35;;
49396;SDS011;35615;41.410;2.194;2023-04-12T02:13:21;12.60;;;5.78;;
49396;SDS011;35615;41.410;2.194;2023-04-12T02:15:51;15.25;;;5.45;;
49396;SDS011;35615;41.410;2.194;2023-04-12T02:18:21;14.45;;;6.35;;
49396;SDS011;35615;41.410;2.194;2023-04-12T02:20:54;10.73;;;5.95;;
49396;SDS011;35615;41.410;2.194;2023-04-12T02:23:22;12.90;;;5.78;;
49396;SDS011;35615;41.410;2.194;2023-04-12T02:25:51;10.55;;;6.55;;
49396;SDS011;35615;41.410;2.194;2023-04-12T02:28:19;20.33;;;7.47;;
49396;SDS011;35615;41.410;2.194;2023-04-12T02:30:48;10.98;;;6.00;;
49396;SDS011;35615;41.410;2.194;2023-04-12T02:33:22;15.27;;;8.30;;
49396;SDS011;35615;41.410;2.194;2023-04-12T02:35:56;14.75;;;9.32;;
49396;SDS011;35615;41.410;2.194;2023-04-12T02:38:23;17.38;;;10.07;;
49396;SDS011;35615;41.410;2.194;2023-04-12T02:40:55;23.10;;;10.25;;
49396;SDS011;35615;41.410;2.194;2023-04-12T02:43:24;17.83;;;10.82;;
49396;SDS011;35615;41.410;2.194;2023-04-12T02:45:59;21.70;;;11.80;;
49396;SDS011;35615;41.410;2.194;2023-04-12T02:48:29;21.02;;;12.02;;
49396;SDS011;35615;41.410;2.194;2023-04-12T02:50:59;18.00;;;10.73;;
49396;SDS011;35615;41.410;2.194;2023-04-12T02:53:29;17.17;;;11.18;;
49396;SDS011;35615;41.410;2.194;2023-04-12T02:56:09;22.45;;;11.45;;
49396;SDS011;35615;41.410;2.194;2023-04-12T02:58:37;28.77;;;12.10;;
49396;SDS011;35615;41.410;2.194;2023-04-12T03:03:58;23.67;;;11.50;;
49396;SDS011;35615;41.410;2.194;2023-04-12T03:06:44;29.33;;;11.85;;
49396;SDS011;35615;41.410;2.194;2023-04-12T03:09:25;20.58;;;11.18;;
49396;SDS011;35615;41.410;2.194;2023-04-12T03:11:54;27.73;;;11.50;;
49396;SDS011;35615;41.410;2.194;2023-04-12T03:14:22;21.70;;;11.70;;
49396;SDS011;35615;41.410;2.194;2023-04-12T03:16:51;24.48;;;12.20;;
49396;SDS011;35615;41.410;2.194;2023-04-12T03:19:19;22.90;;;12.82;;
49396;SDS011;35615;41.410;2.194;2023-04-12T03:21:53;18.88;;;11.65;;
49396;SDS011;35615;41.410;2.194;2023-04-12T03:24:21;18.50;;;11.15;;
49396;SDS011;35615;41.410;2.194;2023-04-12T03:26:50;20.33;;;11.07;;
49396;SDS011;35615;41.410;2.194;2023-04-12T03:29:22;18.55;;;10.18;;
49396;SDS011;35615;41.410;2.194;2023-04-12T03:31:53;20.35;;;9.90;;
49396;SDS011;35615;41.410;2.194;2023-04-12T03:34:21;27.73;;;9.80;;
49396;SDS011;35615;41.410;2.194;2023-04-12T03:36:52;18.98;;;8.60;;
49396;SDS011;35615;41.410;2.194;2023-04-12T03:39:35;18.93;;;8.13;;
49396;SDS011;35615;41.410;2.194;2023-04-12T03:42:04;17.73;;;8.25;;
49396;SDS011;35615;41.410;2.194;2023-04-12T03:44:32;22.33;;;7.25;;
49396;SDS011;35615;41.410;2.194;2023-04-12T03:47:05;12.45;;;7.53;;
49396;SDS011;35615;41.410;2.194;2023-04-12T03:49:34;14.52;;;7.97;;
49396;SDS011;35615;41.410;2.194;2023-04-12T03:52:08;20.25;;;7.72;;
49396;SDS011;35615;41.410;2.194;2023-04-12T03:54:37;14.63;;;7.10;;
49396;SDS011;35615;41.410;2.194;2023-04-12T03:57:08;21.00;;;7.10;;
49396;SDS011;35615;41.410;2.194;2023-04-12T03:59:39;14.75;;;7.40;;
49396;SDS011;35615;41.410;2.194;2023-04-12T04:02:07;25.17;;;8.00;;
49396;SDS011;35615;41.410;2.194;2023-04-12T04:04:42;13.50;;;7.43;;
49396;SDS011;35615;41.410;2.194;2023-04-12T04:07:12;15.18;;;7.78;;
49396;SDS011;35615;41.410;2.194;2023-04-12T04:09:42;12.02;;;7.63;;
49396;SDS011;35615;41.410;2.194;2023-04-12T04:12:10;19.60;;;8.05;;
49396;SDS011;35615;41.410;2.194;2023-04-12T04:14:43;28.30;;;8.48;;
49396;SDS011;35615;41.410;2.194;2023-04-12T04:17:17;17.05;;;7.95;;
49396;SDS011;35615;41.410;2.194;2023-04-12T04:19:45;16.80;;;8.50;;
49396;SDS011;35615;41.410;2.194;2023-04-12T04:22:13;21.40;;;8.25;;
49396;SDS011;35615;41.410;2.194;2023-04-12T04:24:44;15.27;;;8.43;;
49396;SDS011;35615;41.410;2.194;2023-04-12T04:27:11;27.75;;;9.40;;
49396;SDS011;35615;41.410;2.194;2023-04-12T04:29:42;15.93;;;9.25;;
49396;SDS011;35615;41.410;2.194;2023-04-12T04:32:15;15.77;;;8.15;;
49396;SDS011;35615;41.410;2.194;2023-04-12T04:34:44;23.85;;;9.18;;
49396;SDS011;35615;41.410;2.194;2023-04-12T04:37:15;16.30;;;9.07;;
49396;SDS011;35615;41.410;2.194;2023-04-12T04:39:46;20.35;;;9.23;;
49396;SDS011;35615;41.410;2.194;2023-04-12T04:42:14;17.02;;;9.45;;
49396;SDS011;35615;41.410;2.194;2023-04-12T04:44:56;25.08;;;9.90;;
49396;SDS011;35615;41.410;2.194;2023-04-12T04:47:36;20.58;;;9.63;;
49396;SDS011;35615;41.410;2.194;2023-04-12T04:50:07;23.85;;;9.90;;
49396;SDS011;35615;41.410;2.194;2023-04-12T04:52:37;18.92;;;10.00;;
49396;SDS011;35615;41.410;2.194;2023-04-12T04:55:09;20.15;;;9.60;;
49396;SDS011;35615;41.410;2.194;2023-04-12T04:57:43;18.63;;;10.10;;
49396;SDS011;35615;41.410;2.194;2023-04-12T05:00:15;21.13;;;10.13;;
49396;SDS011;35615;41.410;2.194;2023-04-12T05:02:51;16.42;;;9.07;;
49396;SDS011;35615;41.410;2.194;2023-04-12T05:05:27;22.60;;;9.77;;
49396;SDS011;35615;41.410;2.194;2023-04-12T05:08:04;20.40;;;10.35;;
49396;SDS011;35615;41.410;2.194;2023-04-12T05:10:33;20.00;;;10.13;;
49396;SDS011;35615;41.410;2.194;2023-04-12T05:13:01;19.35;;;10.48;;
49396;SDS011;35615;41.410;2.194;2023-04-12T05:15:29;18.48;;;11.25;;
49396;SDS011;35615;41.410;2.194;2023-04-12T05:17:58;22.95;;;10.75;;
49396;SDS011;35615;41.410;2.194;2023-04-12T05:20:32;22.80;;;11.50;;
49396;SDS011;35615;41.410;2.194;2023-04-12T05:23:05;24.55;;;12.02;;
49396;SDS011;35615;41.410;2.194;2023-04-12T05:25:34;27.30;;;12.60;;
49396;SDS011;35615;41.410;2.194;2023-04-12T05:28:06;25.75;;;12.48;;
49396;SDS011;35615;41.410;2.194;2023-04-12T05:30:45;20.95;;;12.30;;
49396;SDS011;35615;41.410;2.194;2023-04-12T05:33:20;30.27;;;14.63;;
49396;SDS011;35615;41.410;2.194;2023-04-12T05:35:48;32.53;;;16.63;;
49396;SDS011;35615;41.410;2.194;2023-04-12T05:38:27;34.45;;;16.33;;
49396;SDS011;35615;41.410;2.194;2023-04-12T05:40:58;27.50;;;15.48;;
49396;SDS011;35615;41.410;2.194;2023-04-12T05:43:39;30.33;;;17.23;;
49396;SDS011;35615;41.410;2.194;2023-04-12T05:46:08;33.35;;;17.80;;
49396;SDS011;35615;41.410;2.194;2023-04-12T05:48:48;33.60;;;17.50;;
49396;SDS011;35615;41.410;2.194;2023-04-12T05:51:22;30.13;;;17.05;;
49396;SDS011;35615;41.410;2.194;2023-04-12T05:54:19;30.90;;;15.90;;
49396;SDS011;35615;41.410;2.194;2023-04-12T05:56:53;32.28;;;18.05;;
49396;SDS011;35615;41.410;2.194;2023-04-12T05:59:40;27.58;;;16.45;;
49396;SDS011;35615;41.410;2.194;2023-04-12T06:02:31;27.60;;;17.00;;
49396;SDS011;35615;41.410;2.194;2023-04-12T06:05:02;27.50;;;14.82;;
49396;SDS011;35615;41.410;2.194;2023-04-12T06:07:44;29.75;;;16.05;;
49396;SDS011;35615;41.410;2.194;2023-04-12T06:10:21;28.42;;;16.38;;
49396;SDS011;35615;41.410;2.194;2023-04-12T06:12:55;30.83;;;15.82;;
49396;SDS011;35615;41.410;2.194;2023-04-12T06:15:22;28.98;;;16.30;;
49396;SDS011;35615;41.410;2.194;2023-04-12T06:18:00;33.50;;;16.13;;
49396;SDS011;35615;41.410;2.194;2023-04-12T06:20:29;40.70;;;16.08;;
49396;SDS011;35615;41.410;2.194;2023-04-12T06:23:14;26.10;;;14.50;;
49396;SDS011;35615;41.410;2.194;2023-04-12T06:26:00;31.55;;;12.98;;
49396;SDS011;35615;41.410;2.194;2023-04-12T06:28:33;28.50;;;11.80;;
49396;SDS011;35615;41.410;2.194;2023-04-12T06:31:10;23.55;;;12.30;;
49396;SDS011;35615;41.410;2.194;2023-04-12T06:33:48;31.88;;;12.00;;
49396;SDS011;35615;41.410;2.194;2023-04-12T06:36:16;29.95;;;11.30;;
49396;SDS011;35615;41.410;2.194;2023-04-12T06:39:03;37.05;;;11.13;;
49396;SDS011;35615;41.410;2.194;2023-04-12T06:41:36;35.45;;;11.25;;
49396;SDS011;35615;41.410;2.194;2023-04-12T06:44:11;30.95;;;13.18;;
49396;SDS011;35615;41.410;2.194;2023-04-12T06:46:51;25.40;;;10.52;;
49396;SDS011;35615;41.410;2.194;2023-04-12T06:49:25;23.98;;;10.90;;
49396;SDS011;35615;41.410;2.194;2023-04-12T06:51:58;37.78;;;11.63;;
49396;SDS011;35615;41.410;2.194;2023-04-12T06:54:46;30.75;;;11.80;;
49396;SDS011;35615;41.410;2.194;2023-04-12T06:57:27;32.42;;;13.90;;
49396;SDS011;35615;41.410;2.194;2023-04-12T07:00:03;31.48;;;13.77;;
49396;SDS011;35615;41.410;2.194;2023-04-12T07:02:34;29.65;;;13.88;;
49396;SDS011;35615;41.410;2.194;2023-04-12T07:05:12;31.60;;;13.02;;
49396;SDS011;35615;41.410;2.194;2023-04-12T07:07:46;32.63;;;13.75;;
49396;SDS011;35615;41.410;2.194;2023-04-12T07:10:14;39.50;;;12.35;;
49396;SDS011;35615;41.410;2.194;2023-04-12T07:12:53;25.55;;;13.45;;
49396;SDS011;35615;41.410;2.194;2023-04-12T07:15:33;28.67;;;13.07;;
49396;SDS011;35615;41.410;2.194;2023-04-12T07:18:12;61.65;;;15.93;;
49396;SDS011;35615;41.410;2.194;2023-04-12T07:20:41;40.95;;;13.70;;
49396;SDS011;35615;41.410;2.194;2023-04-12T07:23:09;30.73;;;14.95;;
49396;SDS011;35615;41.410;2.194;2023-04-12T07:25:42;49.70;;;16.50;;
49396;SDS011;35615;41.410;2.194;2023-04-12T07:28:26;35.90;;;12.75;;
49396;SDS011;35615;41.410;2.194;2023-04-12T07:31:18;35.47;;;15.13;;
49396;SDS011;35615;41.410;2.194;2023-04-12T07:33:56;31.40;;;13.60;;
49396;SDS011;35615;41.410;2.194;2023-04-12T07:36:30;31.00;;;15.40;;
49396;SDS011;35615;41.410;2.194;2023-04-12T07:39:00;36.63;;;15.90;;
49396;SDS011;35615;41.410;2.194;2023-04-12T07:41:47;31.92;;;14.70;;
49396;SDS011;35615;41.410;2.194;2023-04-12T07:44:36;32.47;;;16.83;;
49396;SDS011;35615;41.410;2.194;2023-04-12T07:47:09;30.80;;;15.93;;
49396;SDS011;35615;41.410;2.194;2023-04-12T07:49:36;29.13;;;14.90;;
49396;SDS011;35615;41.410;2.194;2023-04-12T07:52:20;24.50;;;9.80;;
49396;SDS011;35615;41.410;2.194;2023-04-12T07:54:54;17.35;;;9.30;;
49396;SDS011;35615;41.410;2.194;2023-04-12T07:57:30;12.43;;;7.10;;
49396;SDS011;35615;41.410;2.194;2023-04-12T08:00:07;16.10;;;8.30;;
49396;SDS011;35615;41.410;2.194;2023-04-12T08:02:44;17.52;;;7.97;;
49396;SDS011;35615;41.410;2.194;2023-04-12T08:05:22;18.88;;;8.07;;
49396;SDS011;35615;41.410;2.194;2023-04-12T08:07:59;17.58;;;8.73;;
49396;SDS011;35615;41.410;2.194;2023-04-12T08:13:09;11.57;;;7.38;;
49396;SDS011;35615;41.410;2.194;2023-04-12T08:15:39;21.25;;;7.95;;
49396;SDS011;35615;41.410;2.194;2023-04-12T08:18:07;11.48;;;6.78;;
49396;SDS011;35615;41.410;2.194;2023-04-12T08:20:34;19.65;;;7.38;;
49396;SDS011;35615;41.410;2.194;2023-04-12T08:23:04;17.50;;;6.95;;
49396;SDS011;35615;41.410;2.194;2023-04-12T08:25:32;13.70;;;7.10;;
49396;SDS011;35615;41.410;2.194;2023-04-12T08:28:03;23.13;;;8.10;;
49396;SDS011;35615;41.410;2.194;2023-04-12T08:30:41;25.67;;;8.15;;
49396;SDS011;35615;41.410;2.194;2023-04-12T08:33:12;18.17;;;8.00;;
49396;SDS011;35615;41.410;2.194;2023-04-12T08:35:45;19.33;;;8.18;;
49396;SDS011;35615;41.410;2.194;2023-04-12T08:38:13;15.85;;;7.18;;
49396;SDS011;35615;41.410;2.194;2023-04-12T08:40:41;16.67;;;7.43;;
49396;SDS011;35615;41.410;2.194;2023-04-12T08:45:46;11.40;;;6.32;;
49396;SDS011;35615;41.410;2.194;2023-04-12T08:48:18;18.33;;;7.68;;
49396;SDS011;35615;41.410;2.194;2023-04-12T08:50:49;17.98;;;7.57;;
49396;SDS011;35615;41.410;2.194;2023-04-12T08:53:23;21.40;;;6.82;;
49396;SDS011;35615;41.410;2.194;2023-04-12T08:55:52;17.15;;;5.95;;
49396;SDS011;35615;41.410;2.194;2023-04-12T08:58:20;13.98;;;5.82;;
49396;SDS011;35615;41.410;2.194;2023-04-12T09:00:52;12.47;;;6.00;;
49396;SDS011;35615;41.410;2.194;2023-04-12T09:03:28;28.10;;;6.07;;
49396;SDS011;35615;41.410;2.194;2023-04-12T09:06:01;22.90;;;5.78;;
49396;SDS011;35615;41.410;2.194;2023-04-12T09:08:29;17.98;;;5.32;;
49396;SDS011;35615;41.410;2.194;2023-04-12T09:10:57;16.63;;;5.70;;
49396;SDS011;35615;41.410;2.194;2023-04-12T09:13:32;18.60;;;5.45;;
49396;SDS011;35615;41.410;2.194;2023-04-12T09:16:05;12.95;;;5.30;;
49396;SDS011;35615;41.410;2.194;2023-04-12T09:18:52;16.55;;;6.15;;
49396;SDS011;35615;41.410;2.194;2023-04-12T09:21:34;16.73;;;5.55;;
49396;SDS011;35615;41.410;2.194;2023-04-12T09:24:06;10.38;;;4.80;;
49396;SDS011;35615;41.410;2.194;2023-04-12T09:26:40;14.10;;;5.47;;
49396;SDS011;35615;41.410;2.194;2023-04-12T09:29:20;18.73;;;6.07;;
49396;SDS011;35615;41.410;2.194;2023-04-12T09:32:00;18.02;;;5.80;;
49396;SDS011;35615;41.410;2.194;2023-04-12T09:34:29;10.88;;;5.55;;
49396;SDS011;35615;41.410;2.194;2023-04-12T09:36:59;14.88;;;5.50;;
49396;SDS011;35615;41.410;2.194;2023-04-12T09:39:45;17.02;;;6.10;;
49396;SDS011;35615;41.410;2.194;2023-04-12T09:42:26;19.25;;;6.65;;
49396;SDS011;35615;41.410;2.194;2023-04-12T09:45:19;15.35;;;5.85;;
49396;SDS011;35615;41.410;2.194;2023-04-12T09:47:50;9.85;;;4.53;;
49396;SDS011;35615;41.410;2.194;2023-04-12T09:53:11;12.48;;;4.80;;
49396;SDS011;35615;41.410;2.194;2023-04-12T09:55:50;11.20;;;5.05;;
49396;SDS011;35615;41.410;2.194;2023-04-12T09:58:36;12.30;;;5.45;;
49396;SDS011;35615;41.410;2.194;2023-04-12T10:01:38;13.20;;;4.95;;
49396;SDS011;35615;41.410;2.194;2023-04-12T10:04:20;11.52;;;5.47;;
49396;SDS011;35615;41.410;2.194;2023-04-12T10:06:54;26.63;;;6.47;;
49396;SDS011;35615;41.410;2.194;2023-04-12T10:09:36;11.07;;;5.60;;
49396;SDS011;35615;41.410;2.194;2023-04-12T10:12:08;14.10;;;4.75;;
49396;SDS011;35615;41.410;2.194;2023-04-12T10:17:50;9.23;;;5.03;;
49396;SDS011;35615;41.410;2.194;2023-04-12T10:20:35;8.50;;;4.97;;
49396;SDS011;35615;41.410;2.194;2023-04-12T10:26:41;12.70;;;5.65;;
49396;SDS011;35615;41.410;2.194;2023-04-12T10:29:29;14.60;;;5.63;;
49396;SDS011;35615;41.410;2.194;2023-04-12T10:35:03;19.98;;;6.45;;
49396;SDS011;35615;41.410;2.194;2023-04-12T10:37:59;17.13;;;7.03;;
49396;SDS011;35615;41.410;2.194;2023-04-12T10:40:37;14.70;;;6.45;;
49396;SDS011;35615;41.410;2.194;2023-04-12T10:43:45;15.18;;;5.57;;
49396;SDS011;35615;41.410;2.194;2023-04-12T10:49:12;9.02;;;4.63;;
49396;SDS011;35615;41.410;2.194;2023-04-12T10:54:29;6.68;;;5.13;;
49396;SDS011;35615;41.410;2.194;2023-04-12T10:57:38;11.95;;;5.25;;
49396;SDS011;35615;41.410;2.194;2023-04-12T11:00:16;19.00;;;6.28;;
49396;SDS011;35615;41.410;2.194;2023-04-12T11:03:05;10.60;;;5.10;;
49396;SDS011;35615;41.410;2.194;2023-04-12T11:06:00;13.05;;;5.65;;
49396;SDS011;35615;41.410;2.194;2023-04-12T11:09:16;12.07;;;5.78;;
49396;SDS011;35615;41.410;2.194;2023-04-12T11:11:58;16.30;;;6.63;;
49396;SDS011;35615;41.410;2.194;2023-04-12T11:14:44;23.42;;;5.82;;
49396;SDS011;35615;41.410;2.194;2023-04-12T11:19:44;10.48;;;6.20;;
49396;SDS011;35615;41.410;2.194;2023-04-12T11:22:13;10.13;;;5.32;;
49396;SDS011;35615;41.410;2.194;2023-04-12T11:24:42;25.17;;;6.82;;
49396;SDS011;35615;41.410;2.194;2023-04-12T11:27:22;14.65;;;5.68;;
49396;SDS011;35615;41.410;2.194;2023-04-12T11:29:57;17.00;;;6.63;;
49396;SDS011;35615;41.410;2.194;2023-04-12T11:32:27;30.03;;;6.87;;
49396;SDS011;35615;41.410;2.194;2023-04-12T11:35:08;18.02;;;5.82;;
49396;SDS011;35615;41.410;2.194;2023-04-12T11:37:56;12.93;;;6.18;;
49396;SDS011;35615;41.410;2.194;2023-04-12T11:40:32;21.50;;;5.70;;
49396;SDS011;35615;41.410;2.194;2023-04-12T11:43:05;10.90;;;5.20;;
49396;SDS011;35615;41.410;2.194;2023-04-12T11:45:36;15.10;;;5.47;;
49396;SDS011;35615;41.410;2.194;2023-04-12T11:48:11;17.70;;;5.38;;
49396;SDS011;35615;41.410;2.194;2023-04-12T11:50:43;15.30;;;5.80;;
49396;SDS011;35615;41.410;2.194;2023-04-12T11:53:19;19.23;;;5.68;;
49396;SDS011;35615;41.410;2.194;2023-04-12T11:55:55;14.75;;;4.93;;
49396;SDS011;35615;41.410;2.194;2023-04-12T11:58:34;11.65;;;5.05;;
49396;SDS011;35615;41.410;2.194;2023-04-12T12:01:02;17.50;;;5.90;;
49396;SDS011;35615;41.410;2.194;2023-04-12T12:03:37;9.43;;;5.95;;
49396;SDS011;35615;41.410;2.194;2023-04-12T12:06:08;13.60;;;5.85;;
49396;SDS011;35615;41.410;2.194;2023-04-12T12:09:05;8.75;;;5.65;;
49396;SDS011;35615;41.410;2.194;2023-04-12T12:11:35;11.95;;;5.45;;
49396;SDS011;35615;41.410;2.194;2023-04-12T12:14:08;18.85;;;5.57;;
49396;SDS011;35615;41.410;2.194;2023-04-12T12:16:49;13.10;;;5.57;;
49396;SDS011;35615;41.410;2.194;2023-04-12T12:19:29;15.18;;;5.50;;
49396;SDS011;35615;41.410;2.194;2023-04-12T12:22:21;8.30;;;5.53;;
49396;SDS011;35615;41.410;2.194;2023-04-12T12:25:08;18.63;;;4.80;;
49396;SDS011;35615;41.410;2.194;2023-04-12T12:27:44;12.00;;;5.45;;
49396;SDS011;35615;41.410;2.194;2023-04-12T12:30:20;11.35;;;5.45;;
49396;SDS011;35615;41.410;2.194;2023-04-12T12:32:57;16.75;;;5.28;;
49396;SDS011;35615;41.410;2.194;2023-04-12T12:35:25;12.15;;;4.60;;
49396;SDS011;35615;41.410;2.194;2023-04-12T12:41:40;10.68;;;4.72;;
49396;SDS011;35615;41.410;2.194;2023-04-12T12:47:11;11.10;;;4.60;;
49396;SDS011;35615;41.410;2.194;2023-04-12T12:49:51;16.92;;;4.65;;
49396;SDS011;35615;41.410;2.194;2023-04-12T12:52:23;33.13;;;6.70;;
49396;SDS011;35615;41.410;2.194;2023-04-12T12:54:55;12.70;;;4.03;;
49396;SDS011;35615;41.410;2.194;2023-04-12T12:57:38;9.38;;;4.35;;
49396;SDS011;35615;41.410;2.194;2023-04-12T13:00:40;7.85;;;3.45;;
49396;SDS011;35615;41.410;2.194;2023-04-12T13:03:09;9.07;;;3.58;;
49396;SDS011;35615;41.410;2.194;2023-04-12T13:05:51;15.30;;;3.95;;
49396;SDS011;35615;41.410;2.194;2023-04-12T13:08:27;13.30;;;3.58;;
49396;SDS011;35615;41.410;2.194;2023-04-12T13:11:04;19.35;;;4.75;;
49396;SDS011;35615;41.410;2.194;2023-04-12T13:13:38;13.55;;;4.13;;
49396;SDS011;35615;41.410;2.194;2023-04-12T13:16:27;15.43;;;3.85;;
49396;SDS011;35615;41.410;2.194;2023-04-12T13:19:08;12.43;;;3.35;;
49396;SDS011;35615;41.410;2.194;2023-04-12T13:22:18;14.40;;;3.10;;
49396;SDS011;35615;41.410;2.194;2023-04-12T13:24:49;7.57;;;2.58;;
49396;SDS011;35615;41.410;2.194;2023-04-12T13:27:20;13.48;;;2.95;;
49396;SDS011;35615;41.410;2.194;2023-04-12T13:29:51;11.00;;;3.50;;
49396;SDS011;35615;41.410;2.194;2023-04-12T13:32:23;8.32;;;2.45;;
49396;SDS011;35615;41.410;2.194;2023-04-12T13:34:50;14.48;;;3.35;;
49396;SDS011;35615;41.410;2.194;2023-04-12T13:37:19;7.28;;;2.10;;
49396;SDS011;35615;41.410;2.194;2023-04-12T13:39:49;11.57;;;1.80;;
49396;SDS011;35615;41.410;2.194;2023-04-12T13:42:23;8.60;;;2.08;;
49396;SDS011;35615;41.410;2.194;2023-04-12T13:44:51;5.45;;;2.00;;
49396;SDS011;35615;41.410;2.194;2023-04-12T13:47:18;10.50;;;2.67;;
49396;SDS011;35615;41.410;2.194;2023-04-12T13:49:49;11.75;;;2.05;;
49396;SDS011;35615;41.410;2.194;2023-04-12T13:52:19;8.05;;;2.25;;
49396;SDS011;35615;41.410;2.194;2023-04-12T13:54:47;9.55;;;1.35;;
49396;SDS011;35615;41.410;2.194;2023-04-12T13:57:16;10.68;;;1.95;;
49396;SDS011;35615;41.410;2.194;2023-04-12T13:59:44;5.65;;;2.63;;
49396;SDS011;35615;41.410;2.194;2023-04-12T14:02:11;16.48;;;4.80;;
49396;SDS011;35615;41.410;2.194;2023-04-12T14:04:48;12.27;;;3.65;;
49396;SDS011;35615;41.410;2.194;2023-04-12T14:07:18;14.45;;;3.90;;
49396;SDS011;35615;41.410;2.194;2023-04-12T14:09:46;11.07;;;2.00;;
49396;SDS011;35615;41.410;2.194;2023-04-12T14:12:17;10.50;;;1.92;;
49396;SDS011;35615;41.410;2.194;2023-04-12T14:14:44;10.40;;;3.03;;
49396;SDS011;35615;41.410;2.194;2023-04-12T14:17:12;15.70;;;2.65;;
49396;SDS011;35615;41.410;2.194;2023-04-12T14:19:43;4.10;;;1.65;;
49396;SDS011;35615;41.410;2.194;2023-04-12T14:22:16;9.02;;;1.50;;
49396;SDS011;35615;41.410;2.194;2023-04-12T14:24:44;8.23;;;1.30;;
49396;SDS011;35615;41.410;2.194;2023-04-12T14:27:12;6.85;;;2.00;;
49396;SDS011;35615;41.410;2.194;2023-04-12T14:29:43;17.75;;;1.70;;
49396;SDS011;35615;41.410;2.194;2023-04-12T14:32:11;5.95;;;1.70;;
49396;SDS011;35615;41.410;2.194;2023-04-12T14:34:42;9.65;;;1.25;;
49396;SDS011;35615;41.410;2.194;2023-04-12T14:37:12;6.72;;;1.20;;
49396;SDS011;35615;41.410;2.194;2023-04-12T14:39:39;3.58;;;1.20;;
49396;SDS011;35615;41.410;2.194;2023-04-12T14:42:14;7.07;;;1.40;;
49396;SDS011;35615;41.410;2.194;2023-04-12T14:44:42;6.22;;;1.17;;
49396;SDS011;35615;41.410;2.194;2023-04-12T14:47:15;7.03;;;1.48;;
49396;SDS011;35615;41.410;2.194;2023-04-12T14:49:48;4.43;;;1.58;;
49396;SDS011;35615;41.410;2.194;2023-04-12T14:52:23;4.05;;;0.90;;
49396;SDS011;35615;41.410;2.194;2023-04-12T14:54:51;5.35;;;1.08;;
49396;SDS011;35615;41.410;2.194;2023-04-12T14:57:19;7.43;;;1.08;;
49396;SDS011;35615;41.410;2.194;2023-04-12T14:59:46;24.42;;;2.40;;
49396;SDS011;35615;41.410;2.194;2023-04-12T15:02:17;10.35;;;1.40;;
49396;SDS011;35615;41.410;2.194;2023-04-12T15:04:50;10.63;;;1.63;;
49396;SDS011;35615;41.410;2.194;2023-04-12T15:07:18;17.35;;;1.40;;
49396;SDS011;35615;41.410;2.194;2023-04-12T15:09:45;10.82;;;1.75;;
49396;SDS011;35615;41.410;2.194;2023-04-12T15:12:19;11.82;;;1.40;;
49396;SDS011;35615;41.410;2.194;2023-04-12T15:14:46;5.15;;;1.27;;
49396;SDS011;35615;41.410;2.194;2023-04-12T15:17:19;2.45;;;1.15;;
49396;SDS011;35615;41.410;2.194;2023-04-12T15:19:46;5.43;;;1.48;;
49396;SDS011;35615;41.410;2.194;2023-04-12T15:22:17;9.65;;;1.58;;
49396;SDS011;35615;41.410;2.194;2023-04-12T15:24:44;13.30;;;1.40;;
49396;SDS011;35615;41.410;2.194;2023-04-12T15:27:15;5.82;;;0.95;;
49396;SDS011;35615;41.410;2.194;2023-04-12T15:29:47;17.50;;;1.90;;
49396;SDS011;35615;41.410;2.194;2023-04-12T15:32:30;13.50;;;1.13;;
49396;SDS011;35615;41.410;2.194;2023-04-12T15:35:08;7.72;;;1.38;;
49396;SDS011;35615;41.410;2.194;2023-04-12T15:37:56;5.57;;;0.88;;
49396;SDS011;35615;41.410;2.194;2023-04-12T15:40:27;2.88;;;1.02;;
49396;SDS011;35615;41.410;2.194;2023-04-12T15:42:58;9.93;;;1.08;;
49396;SDS011;35615;41.410;2.194;2023-04-12T15:45:27;8.18;;;1.05;;
49396;SDS011;35615;41.410;2.194;2023-04-12T15:48:14;4.93;;;1.20;;
49396;SDS011;35615;41.410;2.194;2023-04-12T15:50:47;11.25;;;1.73;;
49396;SDS011;35615;41.410;2.194;2023-04-12T15:53:24;11.45;;;3.78;;
49396;SDS011;35615;41.410;2.194;2023-04-12T15:55:54;9.93;;;3.03;;
49396;SDS011;35615;41.410;2.194;2023-04-12T15:58:22;18.63;;;3.28;;
49396;SDS011;35615;41.410;2.194;2023-04-12T16:00:52;8.40;;;2.50;;
49396;SDS011;35615;41.410;2.194;2023-04-12T16:03:23;9.38;;;2.95;;